Time;durP1;ratioP1;P1;durP2;ratioP2;P2;SDS_P1;SDS_P2;PMS_P1;PMS_P2;Temp;Humidity;BMP_temperature;BMP_pressure;BME280_temperature;BME280_humidity;BME280_pressure;Samples;Min_cycle;Max_cycle;Signal;HPM_P1;HPM_P2
2021/10/14 00:00:01;;;;;;;11.48;8.65;;;;;;;7.05;74.35;97642.03;5017821;28;20042;-76
2021/10/14 00:02:29;;;;;;;10.30;7.50;;;;;;;7.04;74.39;97645.59;5017891;28;20050;-75
2021/10/14 00:04:56;;;;;;;10.25;7.50;;;;;;;7.04;74.52;97647.34;5018059;28;20050;-76
2021/10/14 00:07:24;;;;;;;11.68;7.60;;;;;;;7.03;74.42;97650.91;5018149;28;20061;-75
2021/10/14 00:09:51;;;;;;;8.85;6.78;;;;;;;7.06;75.03;97653.22;5016843;28;20058;-75
2021/10/14 00:12:19;;;;;;;9.15;8.13;;;;;;;7.13;75.06;97654.34;5017834;28;20058;-76
2021/10/14 00:14:47;;;;;;;11.23;7.88;;;;;;;7.17;74.63;97640.13;5017884;28;20050;-75
2021/10/14 00:17:15;;;;;;;12.27;7.97;;;;;;;7.17;74.51;97645.31;5017399;28;20073;-77
2021/10/14 00:19:43;;;;;;;7.38;5.88;;;;;;;7.18;74.53;97640.00;5017568;28;20054;-76
2021/10/14 00:22:10;;;;;;;8.70;6.80;;;;;;;7.23;74.62;97647.38;5018372;28;20049;-75
2021/10/14 00:24:37;;;;;;;8.95;7.13;;;;;;;7.27;74.29;97646.16;5017354;28;20129;-76
2021/10/14 00:27:05;;;;;;;8.55;6.25;;;;;;;7.30;74.46;97651.06;5018456;28;20052;-75
2021/10/14 00:29:32;;;;;;;7.97;6.25;;;;;;;7.36;74.38;97641.94;5018215;28;20045;-76
2021/10/14 00:32:01;;;;;;;8.30;7.07;;;;;;;7.39;74.09;97641.66;5018392;28;20060;-76
2021/10/14 00:34:29;;;;;;;8.90;7.25;;;;;;;7.39;73.86;97639.06;5019032;28;20057;-75
2021/10/14 00:36:56;;;;;;;8.68;6.57;;;;;;;7.39;74.20;97634.72;5018713;28;20054;-75
2021/10/14 00:39:24;;;;;;;9.18;7.28;;;;;;;7.46;75.13;97647.16;5018441;28;20061;-76
2021/10/14 00:41:51;;;;;;;8.40;7.38;;;;;;;7.52;74.27;97641.38;5018129;28;20064;-75
2021/10/14 00:44:19;;;;;;;7.57;6.60;;;;;;;7.55;74.69;97638.53;5018056;28;20050;-75
2021/10/14 00:46:51;;;;;;;8.93;7.35;;;;;;;7.60;75.18;97637.16;5018217;28;20050;-77
2021/10/14 00:49:20;;;;;;;7.47;6.40;;;;;;;7.63;75.46;97631.69;5017260;28;20073;-76
2021/10/14 00:51:48;;;;;;;9.77;7.63;;;;;;;7.63;74.37;97630.84;5017328;28;20060;-78
2021/10/14 00:54:19;;;;;;;8.98;7.75;;;;;;;7.59;73.49;97639.91;5016918;28;20053;-76
2021/10/14 00:56:47;;;;;;;11.68;8.02;;;;;;;7.51;73.57;97635.38;5016918;28;20393;-77
2021/10/14 00:59:15;;;;;;;10.45;8.45;;;;;;;7.45;74.04;97632.50;5017323;28;20042;-74
2021/10/14 01:01:42;;;;;;;9.40;7.80;;;;;;;7.45;73.96;97638.50;5016981;28;20057;-78
2021/10/14 01:04:10;;;;;;;11.20;8.13;;;;;;;7.46;73.95;97649.75;5017697;28;20072;-76
2021/10/14 01:06:39;;;;;;;7.65;6.45;;;;;;;7.48;74.68;97643.44;5018279;28;20068;-76
2021/10/14 01:09:06;;;;;;;8.40;7.32;;;;;;;7.56;75.20;97642.75;5018041;28;20046;-76
2021/10/14 01:11:34;;;;;;;8.27;7.10;;;;;;;7.61;74.91;97638.81;5018490;28;20053;-75
2021/10/14 01:14:01;;;;;;;10.75;7.18;;;;;;;7.66;74.50;97638.38;5017924;28;20068;-76
2021/10/14 01:16:29;;;;;;;10.07;8.32;;;;;;;7.61;74.27;97633.59;5017947;28;20045;-77
2021/10/14 01:18:56;;;;;;;8.50;7.43;;;;;;;7.60;74.64;97631.94;5015758;28;20100;-74
2021/10/14 01:21:25;;;;;;;11.68;8.30;;;;;;;7.57;73.69;97634.84;5015942;28;20054;-75
2021/10/14 01:23:53;;;;;;;10.27;8.15;;;;;;;7.54;74.09;97616.09;5015952;28;20451;-76
2021/10/14 01:26:20;;;;;;;8.93;7.50;;;;;;;7.53;73.31;97614.47;5016340;28;20050;-75
2021/10/14 01:28:48;;;;;;;11.07;8.85;;;;;;;7.48;73.09;97621.84;5017890;28;20484;-74
2021/10/14 01:31:15;;;;;;;9.73;7.53;;;;;;;7.44;74.01;97621.31;5018061;28;20058;-76
2021/10/14 01:33:43;;;;;;;8.40;7.15;;;;;;;7.49;74.04;97619.13;5018673;28;20092;-76
2021/10/14 01:36:10;;;;;;;10.75;8.32;;;;;;;7.50;73.16;97617.34;5018035;28;20042;-76
2021/10/14 01:38:39;;;;;;;11.98;9.73;;;;;;;7.43;73.01;97620.50;5017615;28;20404;-76
2021/10/14 01:41:07;;;;;;;9.77;8.07;;;;;;;7.37;73.06;97615.03;5017694;28;20436;-75
2021/10/14 01:43:34;;;;;;;11.27;8.73;;;;;;;7.35;73.73;97606.56;5018015;28;20508;-77
2021/10/14 01:46:02;;;;;;;10.52;7.95;;;;;;;7.36;73.19;97614.19;5017224;28;20054;-76
2021/10/14 01:48:30;;;;;;;12.75;8.73;;;;;;;7.30;72.48;97603.53;5016789;28;20050;-77
2021/10/14 01:50:58;;;;;;;10.38;8.13;;;;;;;7.20;72.48;97611.34;5017477;28;20056;-76
2021/10/14 01:53:26;;;;;;;12.48;8.50;;;;;;;7.11;72.56;97601.78;5016702;28;20060;-76
2021/10/14 01:55:55;;;;;;;9.85;8.30;;;;;;;7.06;73.03;97598.75;5016335;28;20527;-75
2021/10/14 01:58:23;;;;;;;10.60;7.80;;;;;;;7.03;72.66;97601.63;5015855;28;20079;-76
2021/10/14 02:00:52;;;;;;;9.15;7.85;;;;;;;6.98;73.16;97605.44;5015294;28;20061;-75
2021/10/14 02:03:20;;;;;;;9.82;8.30;;;;;;;6.92;72.81;97600.78;5017035;28;20062;-75
2021/10/14 02:05:48;;;;;;;10.25;8.35;;;;;;;6.85;72.98;97604.88;5015866;28;20393;-75
2021/10/14 02:08:15;;;;;;;12.35;8.75;;;;;;;6.84;73.32;97605.00;5016462;28;20050;-77
2021/10/14 02:10:43;;;;;;;11.00;7.57;;;;;;;6.83;73.12;97606.78;5016377;28;20053;-75
2021/10/14 02:13:11;;;;;;;7.82;6.32;;;;;;;6.91;74.29;97606.09;5016296;28;20508;-76
2021/10/14 02:15:39;;;;;;;10.70;8.32;;;;;;;6.91;73.01;97587.94;5016128;28;20048;-77
2021/10/14 02:18:07;;;;;;;10.52;7.78;;;;;;;6.90;73.74;97607.88;5015795;28;20054;-77
2021/10/14 02:20:34;;;;;;;9.27;7.57;;;;;;;6.92;73.74;97605.97;5015772;28;20503;-75
2021/10/14 02:23:02;;;;;;;9.70;7.72;;;;;;;6.90;72.72;97601.88;5016073;28;20056;-74
2021/10/14 02:25:29;;;;;;;12.05;7.47;;;;;;;6.84;72.84;97600.63;5015699;28;20046;-77
2021/10/14 02:27:57;;;;;;;11.10;8.43;;;;;;;6.81;72.71;97598.31;5015684;28;20053;-80
2021/10/14 02:30:26;;;;;;;12.10;8.25;;;;;;;6.82;73.02;97599.94;5016106;28;20321;-77
2021/10/14 02:32:53;;;;;;;9.65;6.63;;;;;;;6.88;74.45;97596.81;5017419;28;20056;-76
2021/10/14 02:35:21;;;;;;;9.45;7.07;;;;;;;6.93;73.41;97607.63;5015900;28;20526;-74
2021/10/14 02:37:48;;;;;;;9.30;7.38;;;;;;;6.92;73.40;97595.59;5016262;28;20141;-75
2021/10/14 02:40:16;;;;;;;8.02;5.93;;;;;;;6.95;73.90;97597.94;5015816;28;20057;-79
2021/10/14 02:42:43;;;;;;;8.77;6.30;;;;;;;6.96;73.82;97591.78;5016043;28;20063;-76
2021/10/14 02:45:11;;;;;;;9.65;7.57;;;;;;;6.93;72.47;97596.41;5015602;28;20052;-76
2021/10/14 02:47:40;;;;;;;6.43;5.82;;;;;;;6.90;73.70;97597.50;5015243;28;20100;-75
2021/10/14 02:50:08;;;;;;;10.20;7.95;;;;;;;6.90;73.28;97594.91;5015831;28;20057;-79
2021/10/14 02:52:35;;;;;;;8.77;6.57;;;;;;;6.86;71.98;97595.31;5017262;28;20073;-76
2021/10/14 02:55:03;;;;;;;9.90;7.03;;;;;;;6.76;71.78;97595.28;5017053;28;20775;-77
2021/10/14 02:57:31;;;;;;;14.15;8.63;;;;;;;6.63;72.12;97590.34;5015819;28;20466;-75
2021/10/14 02:59:58;;;;;;;10.80;8.23;;;;;;;6.53;72.18;97594.69;5014574;28;20054;-75
2021/10/14 03:02:26;;;;;;;8.77;7.63;;;;;;;6.46;72.46;97594.38;5014653;28;20065;-76
2021/10/14 03:04:55;;;;;;;11.25;8.25;;;;;;;6.42;72.28;97598.19;5014471;28;20477;-75
2021/10/14 03:07:22;;;;;;;10.57;7.75;;;;;;;6.37;72.51;97595.97;5014067;28;20050;-78
2021/10/14 03:09:50;;;;;;;10.82;7.00;;;;;;;6.38;73.35;97596.81;5013872;28;20053;-75
2021/10/14 03:12:17;;;;;;;9.35;7.75;;;;;;;6.39;72.93;97598.47;5014469;28;20504;-75
2021/10/14 03:14:45;;;;;;;9.25;7.28;;;;;;;6.38;72.96;97600.22;5013867;28;20069;-78
2021/10/14 03:17:12;;;;;;;11.98;8.45;;;;;;;6.36;72.78;97598.69;5013891;28;20057;-75
2021/10/14 03:19:40;;;;;;;10.20;6.93;;;;;;;6.36;72.84;97593.50;5013097;28;20060;-76
2021/10/14 03:22:08;;;;;;;8.68;7.13;;;;;;;6.34;72.65;97595.41;5013578;28;20069;-76
2021/10/14 03:24:36;;;;;;;9.82;6.57;;;;;;;6.30;73.06;97586.28;5013351;28;20054;-77
2021/10/14 03:27:04;;;;;;;11.50;8.13;;;;;;;6.31;73.01;97600.88;5013646;28;20049;-75
2021/10/14 03:29:31;;;;;;;8.90;6.68;;;;;;;6.30;72.72;97594.88;5013411;28;20046;-75
2021/10/14 03:31:59;;;;;;;9.00;7.15;;;;;;;6.30;72.82;97589.69;5013490;28;20500;-75
2021/10/14 03:34:26;;;;;;;11.85;8.00;;;;;;;6.30;72.95;97592.28;5013153;28;20435;-75
2021/10/14 03:36:54;;;;;;;10.90;7.70;;;;;;;6.29;72.56;97589.81;5013093;28;20081;-74
2021/10/14 03:39:23;;;;;;;11.50;8.20;;;;;;;6.28;73.05;97581.22;5012683;28;20045;-74
2021/10/14 03:41:50;;;;;;;10.70;8.15;;;;;;;6.29;72.80;97588.03;5013060;28;20674;-75
2021/10/14 03:44:17;;;;;;;14.60;9.98;;;;;;;6.30;72.77;97588.88;5013073;28;20049;-74
2021/10/14 03:46:45;;;;;;;16.25;10.93;;;;;;;6.29;72.36;97587.22;5012906;28;20046;-75
2021/10/14 03:49:13;;;;;;;15.23;11.20;;;;;;;6.26;72.51;97598.69;5012656;28;20049;-74
2021/10/14 03:51:40;;;;;;;14.95;9.93;;;;;;;6.24;72.84;97594.56;5012740;28;20069;-76
2021/10/14 03:54:09;;;;;;;10.23;7.88;;;;;;;6.28;73.07;97595.97;5013109;28;20057;-74
2021/10/14 03:56:38;;;;;;;10.45;8.63;;;;;;;6.31;73.00;97593.09;5012808;28;20523;-73
2021/10/14 03:59:05;;;;;;;10.48;7.07;;;;;;;6.34;72.80;97595.41;5012564;28;20145;-74
2021/10/14 04:01:33;;;;;;;13.80;9.20;;;;;;;6.31;72.55;97596.50;5032140;22;20054;-77
2021/10/14 04:04:01;;;;;;;9.55;8.00;;;;;;;6.30;72.78;97601.84;4999582;28;20712;-75
2021/10/14 04:06:28;;;;;;;11.32;8.82;;;;;;;6.31;72.79;97600.88;4993289;28;20050;-74
2021/10/14 04:08:56;;;;;;;12.77;8.68;;;;;;;6.29;72.72;97603.59;4992409;28;20047;-75
2021/10/14 04:11:23;;;;;;;11.68;8.23;;;;;;;6.27;72.72;97604.66;4993445;28;20057;-74
2021/10/14 04:13:52;;;;;;;12.48;8.30;;;;;;;6.28;73.54;97611.50;4992887;28;20069;-75
2021/10/14 04:16:19;;;;;;;10.63;7.80;;;;;;;6.33;73.31;97611.94;4994392;28;20069;-75
2021/10/14 04:18:47;;;;;;;10.18;7.75;;;;;;;6.38;73.64;97618.38;4994392;28;20329;-75
2021/10/14 04:21:15;;;;;;;10.98;6.95;;;;;;;6.46;73.75;97616.91;4995094;28;20050;-75
2021/10/14 04:23:44;;;;;;;11.70;7.47;;;;;;;6.51;73.05;97618.13;4992908;28;20046;-76
2021/10/14 04:26:12;;;;;;;8.18;6.78;;;;;;;6.53;73.75;97618.81;4993038;28;20500;-77
2021/10/14 04:28:41;;;;;;;9.73;6.32;;;;;;;6.56;74.01;97622.94;4992219;28;20058;-78
2021/10/14 04:31:10;;;;;;;7.18;5.75;;;;;;;6.57;74.03;97616.78;4993471;28;20113;-80
2021/10/14 04:33:38;;;;;;;8.63;6.97;;;;;;;6.59;73.61;97620.06;4996252;28;20054;-79
2021/10/14 04:36:05;;;;;;;7.75;5.57;;;;;;;6.60;73.96;97621.69;4996114;28;20416;-80
2021/10/14 04:38:33;;;;;;;9.40;6.45;;;;;;;6.62;74.03;97622.41;4995724;28;20046;-77
2021/10/14 04:41:01;;;;;;;10.38;6.63;;;;;;;6.58;73.17;97621.84;4995878;28;20050;-78
2021/10/14 04:43:28;;;;;;;10.15;5.88;;;;;;;6.55;74.10;97632.47;4996176;28;20531;-77
2021/10/14 04:45:56;;;;;;;8.18;6.43;;;;;;;6.57;74.18;97625.38;4995627;28;20468;-78
2021/10/14 04:48:25;;;;;;;10.05;7.35;;;;;;;6.57;73.11;97633.16;4995387;28;20428;-77
2021/10/14 04:50:52;;;;;;;9.77;7.05;;;;;;;6.51;72.85;97628.50;4994574;28;20440;-77
2021/10/14 04:53:20;;;;;;;10.95;6.88;;;;;;;6.51;73.71;97628.50;4993922;28;20211;-77
2021/10/14 04:55:47;;;;;;;9.63;7.22;;;;;;;6.53;73.25;97631.78;4993469;28;20050;-77
2021/10/14 04:58:15;;;;;;;10.02;7.35;;;;;;;6.52;73.07;97640.53;4993618;28;20058;-77
2021/10/14 05:00:42;;;;;;;12.23;9.38;;;;;;;6.52;73.17;97650.88;4993113;28;20526;-77
2021/10/14 05:03:10;;;;;;;10.65;7.22;;;;;;;6.52;73.13;97645.69;4994224;28;20322;-77
2021/10/14 05:05:40;;;;;;;9.13;6.97;;;;;;;6.53;73.49;97642.16;4994476;28;20516;-77
2021/10/14 05:08:07;;;;;;;12.18;8.07;;;;;;;6.53;73.02;97641.34;4995238;28;20046;-77
2021/10/14 05:10:35;;;;;;;11.65;7.57;;;;;;;6.51;73.16;97638.88;4994921;28;20050;-77
2021/10/14 05:13:02;;;;;;;8.90;6.88;;;;;;;6.51;73.40;97638.06;4995174;28;20051;-77
2021/10/14 05:15:30;;;;;;;10.32;7.25;;;;;;;6.53;73.24;97642.16;4995144;28;20054;-77
2021/10/14 05:17:58;;;;;;;9.70;7.45;;;;;;;6.53;73.35;97631.78;4995443;28;20093;-77
2021/10/14 05:20:25;;;;;;;12.60;7.63;;;;;;;6.52;73.50;97637.13;4994911;28;20058;-77
2021/10/14 05:22:54;;;;;;;11.43;8.38;;;;;;;6.50;73.71;97642.41;4995130;28;20065;-77
2021/10/14 05:25:21;;;;;;;10.45;7.57;;;;;;;6.49;73.23;97633.00;4994956;28;20054;-77
2021/10/14 05:27:50;;;;;;;13.48;7.80;;;;;;;6.49;73.76;97635.56;4994568;28;20516;-77
2021/10/14 05:30:18;;;;;;;10.85;8.13;;;;;;;6.48;73.86;97633.94;4994642;28;20467;-77
2021/10/14 05:32:45;;;;;;;12.40;8.98;;;;;;;6.48;73.52;97631.34;4994794;28;20050;-77
2021/10/14 05:35:33;;;;;;;9.40;6.78;;;;;;;6.47;73.68;97632.31;4995500;28;20046;-77
2021/10/14 05:38:03;;;;;;;14.65;7.95;;;;;;;6.53;74.65;97630.97;4994924;28;20092;-77
2021/10/14 05:40:31;;;;;;;11.30;6.50;;;;;;;6.59;74.71;97631.25;4994326;28;20662;-77
2021/10/14 05:42:58;;;;;;;8.35;7.00;;;;;;;6.70;75.31;97629.53;4994454;28;20053;-77
2021/10/14 05:45:26;;;;;;;9.82;7.15;;;;;;;6.78;74.96;97627.09;4994622;28;20528;-77
2021/10/14 05:47:53;;;;;;;10.48;6.88;;;;;;;6.83;74.66;97630.09;4994632;28;20072;-77
2021/10/14 05:50:21;;;;;;;11.90;8.00;;;;;;;6.86;73.66;97627.25;4994658;28;20046;-77
2021/10/14 05:52:48;;;;;;;10.57;7.00;;;;;;;6.91;74.26;97625.09;4995791;28;20424;-78
2021/10/14 05:55:17;;;;;;;10.35;7.72;;;;;;;6.98;74.15;97636.56;4995630;28;20057;-78
2021/10/14 05:57:45;;;;;;;11.75;8.02;;;;;;;7.03;73.73;97638.75;4995518;28;20050;-77
2021/10/14 06:00:14;;;;;;;9.60;8.20;;;;;;;7.09;73.33;97650.38;4994645;28;20057;-77
2021/10/14 06:02:42;;;;;;;11.38;7.90;;;;;;;7.11;73.81;97641.50;4994534;28;20057;-77
2021/10/14 06:05:10;;;;;;;9.30;8.00;;;;;;;7.15;74.34;97642.88;4994004;28;20062;-78
2021/10/14 06:07:37;;;;;;;9.45;8.27;;;;;;;7.18;73.45;97646.97;4994503;28;20502;-77
2021/10/14 06:10:06;;;;;;;12.93;7.57;;;;;;;7.19;73.40;97640.81;4996520;28;20062;-77
2021/10/14 06:12:37;;;;;;;12.52;8.60;;;;;;;7.20;73.18;97639.88;5003361;28;20056;-78
2021/10/14 06:15:06;;;;;;;10.55;8.15;;;;;;;7.20;72.93;97635.50;5002082;28;20047;-78
2021/10/14 06:17:34;;;;;;;12.38;8.40;;;;;;;7.22;73.16;97643.16;4998003;28;20532;-78
2021/10/14 06:20:01;;;;;;;14.68;9.07;;;;;;;7.25;72.72;97637.69;4993906;28;20100;-77
2021/10/14 06:22:29;;;;;;;8.73;7.50;;;;;;;7.25;72.43;97637.69;4994114;28;20420;-78
2021/10/14 06:24:57;;;;;;;14.10;9.45;;;;;;;7.23;72.22;97642.19;4994306;28;20054;-78
2021/10/14 06:27:24;;;;;;;10.93;8.15;;;;;;;7.19;72.39;97648.59;4994076;28;20061;-77
2021/10/14 06:29:54;;;;;;;12.00;8.43;;;;;;;7.16;72.47;97644.50;4993418;28;20057;-77
2021/10/14 06:32:22;;;;;;;14.13;8.10;;;;;;;7.18;72.83;97636.59;4994224;28;20050;-75
2021/10/14 06:34:49;;;;;;;9.32;7.60;;;;;;;7.20;72.35;97651.06;4993951;28;20084;-75
2021/10/14 06:37:17;;;;;;;10.73;8.60;;;;;;;7.23;72.81;97639.59;4994022;28;20054;-75
2021/10/14 06:39:46;;;;;;;11.15;8.65;;;;;;;7.27;72.62;97645.34;4993686;28;20046;-75
2021/10/14 06:42:13;;;;;;;11.85;8.02;;;;;;;7.27;72.55;97638.38;4993626;28;20057;-75
2021/10/14 06:44:41;;;;;;;10.30;7.55;;;;;;;7.31;72.84;97637.16;4994976;28;20053;-76
2021/10/14 06:47:10;;;;;;;13.30;8.05;;;;;;;7.33;72.25;97634.44;4993812;28;20065;-75
2021/10/14 06:49:37;;;;;;;9.93;8.63;;;;;;;7.35;72.25;97638.53;4993419;28;20046;-76
2021/10/14 06:52:05;;;;;;;11.80;8.25;;;;;;;7.39;72.67;97645.09;4994165;28;20061;-76
2021/10/14 06:54:32;;;;;;;11.20;8.00;;;;;;;7.45;72.62;97643.72;4993129;28;20357;-75
2021/10/14 06:57:02;;;;;;;11.20;8.52;;;;;;;7.50;72.79;97648.47;4994711;28;20058;-75
2021/10/14 06:59:29;;;;;;;11.30;8.73;;;;;;;7.49;71.78;97649.47;5002982;28;20057;-75
2021/10/14 07:01:57;;;;;;;8.70;7.28;;;;;;;7.51;72.87;97643.16;5011920;28;20042;-75
2021/10/14 07:04:26;;;;;;;10.35;7.72;;;;;;;7.57;73.10;97647.00;5008080;28;20058;-75
2021/10/14 07:06:54;;;;;;;12.57;8.45;;;;;;;7.58;71.83;97646.84;5007115;28;20042;-75
2021/10/14 07:09:21;;;;;;;8.30;7.22;;;;;;;7.60;73.83;97644.13;5014148;28;20051;-75
2021/10/14 07:11:54;;;;;;;10.68;7.60;;;;;;;7.66;72.94;97638.38;5004709;28;20062;-75
2021/10/14 07:14:22;;;;;;;11.25;7.70;;;;;;;7.72;73.84;97645.63;4994545;28;20054;-75
2021/10/14 07:16:50;;;;;;;11.65;9.13;;;;;;;7.71;72.16;97650.94;4993815;28;20061;-75
2021/10/14 07:19:17;;;;;;;10.18;8.25;;;;;;;7.66;72.20;97646.19;4993481;28;20057;-75
2021/10/14 07:21:46;;;;;;;10.32;7.68;;;;;;;7.62;71.81;97656.00;4993553;28;20046;-76
2021/10/14 07:24:15;;;;;;;11.95;8.10;;;;;;;7.66;72.28;97668.75;4993689;28;20050;-75
2021/10/14 07:26:42;;;;;;;12.43;7.60;;;;;;;7.70;72.17;97662.31;4993841;28;20105;-77
2021/10/14 07:29:10;;;;;;;8.73;7.25;;;;;;;7.77;72.89;97664.22;4995051;28;20053;-77
2021/10/14 07:31:38;;;;;;;10.90;6.30;;;;;;;7.87;73.35;97661.63;5011664;28;20050;-77
2021/10/14 07:34:06;;;;;;;11.30;8.07;;;;;;;7.98;73.63;97664.06;5011670;28;20042;-77
2021/10/14 07:36:33;;;;;;;9.02;7.68;;;;;;;8.08;74.01;97660.63;5012709;28;20053;-77
2021/10/14 07:39:03;;;;;;;11.02;7.72;;;;;;;8.11;71.84;97665.53;5008708;28;20057;-77
2021/10/14 07:41:30;;;;;;;9.05;6.60;;;;;;;8.16;72.98;97658.97;5000774;28;20145;-77
2021/10/14 07:44:00;;;;;;;8.98;6.80;;;;;;;8.17;71.99;97663.19;4994070;28;20046;-77
2021/10/14 07:46:28;;;;;;;10.60;6.60;;;;;;;8.17;71.23;97665.78;4993758;28;20143;-77
2021/10/14 07:48:55;;;;;;;9.57;7.72;;;;;;;8.22;72.01;97658.41;4993511;28;20047;-77
2021/10/14 07:51:23;;;;;;;12.23;8.15;;;;;;;8.28;72.08;97657.00;4993057;28;20520;-77
2021/10/14 07:53:50;;;;;;;12.27;8.10;;;;;;;8.31;71.22;97667.13;4993326;28;20409;-77
2021/10/14 07:56:19;;;;;;;9.68;6.95;;;;;;;8.32;71.18;97662.75;4993395;28;20428;-77
2021/10/14 07:58:46;;;;;;;9.55;7.28;;;;;;;8.36;71.94;97659.72;4992768;28;20057;-77
2021/10/14 08:01:14;;;;;;;11.02;7.43;;;;;;;8.47;72.62;97676.97;4993174;28;20061;-77
2021/10/14 08:03:42;;;;;;;12.50;7.55;;;;;;;8.58;72.56;97684.59;4994568;28;20137;-78
2021/10/14 08:06:10;;;;;;;9.93;6.68;;;;;;;8.65;72.95;97677.03;4996219;28;20050;-77
2021/10/14 08:08:37;;;;;;;12.00;7.63;;;;;;;8.72;72.64;97685.09;4997310;28;20146;-77
2021/10/14 08:11:05;;;;;;;8.52;7.13;;;;;;;8.78;72.34;97680.13;4996866;28;20054;-77
2021/10/14 08:13:34;;;;;;;8.93;6.57;;;;;;;8.83;71.25;97687.50;4997652;28;20066;-78
2021/10/14 08:16:03;;;;;;;9.55;6.32;;;;;;;8.86;71.37;97680.22;4998063;28;20141;-77
2021/10/14 08:18:32;;;;;;;7.40;6.57;;;;;;;8.92;71.62;97680.63;4998187;28;20046;-77
2021/10/14 08:21:00;;;;;;;7.30;6.18;;;;;;;8.95;70.70;97678.56;4998774;28;20054;-77
2021/10/14 08:23:29;;;;;;;7.50;6.20;;;;;;;8.97;70.29;97674.03;4999024;28;20050;-77
2021/10/14 08:25:57;;;;;;;7.20;5.57;;;;;;;9.02;71.70;97676.19;4998334;28;20185;-77
2021/10/14 08:28:26;;;;;;;10.32;6.32;;;;;;;9.08;71.12;97678.22;4997100;28;20053;-77
2021/10/14 08:30:56;;;;;;;6.65;5.50;;;;;;;9.14;70.38;97674.19;4997078;28;20058;-77
2021/10/14 08:33:23;;;;;;;8.80;6.28;;;;;;;9.17;70.40;97672.13;4997406;28;20058;-77
2021/10/14 08:35:51;;;;;;;8.32;6.20;;;;;;;9.21;71.07;97670.06;4997620;28;20050;-78
2021/10/14 08:38:19;;;;;;;9.90;6.53;;;;;;;9.25;70.67;97666.19;4997142;28;20265;-77
2021/10/14 08:40:47;;;;;;;7.60;5.93;;;;;;;9.31;71.44;97662.16;4997870;28;20043;-78
2021/10/14 08:43:18;;;;;;;7.40;6.03;;;;;;;9.35;69.83;97666.94;5010097;28;20051;-78
2021/10/14 08:45:46;;;;;;;7.10;5.75;;;;;;;9.42;71.12;97675.81;5012543;28;20050;-77
2021/10/14 08:48:16;;;;;;;8.55;5.60;;;;;;;9.48;71.26;97667.38;5011897;28;20058;-75
2021/10/14 08:50:46;;;;;;;9.43;5.75;;;;;;;9.53;70.75;97666.13;4999549;28;20077;-77
2021/10/14 08:53:14;;;;;;;14.68;6.47;;;;;;;9.61;71.49;97666.22;4998054;28;20487;-77
2021/10/14 08:55:42;;;;;;;8.20;4.82;;;;;;;9.67;69.76;97670.81;4998061;28;20550;-77
2021/10/14 08:58:11;;;;;;;10.10;6.03;;;;;;;9.74;70.56;97666.66;4997073;28;20050;-77
2021/10/14 09:00:44;;;;;;;8.55;5.75;;;;;;;9.80;69.00;97666.06;4995916;28;20405;-77
2021/10/14 09:03:26;;;;;;;8.38;5.30;;;;;;;9.86;68.93;97662.00;4996389;28;20054;-77
2021/10/14 09:05:54;;;;;;;7.25;5.28;;;;;;;9.91;70.00;97662.38;4995886;28;20046;-77
2021/10/14 09:08:36;;;;;;;5.68;4.38;;;;;;;9.95;69.01;97662.88;4995785;28;20061;-77
2021/10/14 09:11:05;;;;;;;7.28;5.05;;;;;;;9.96;68.03;97670.56;4995354;28;20046;-77
2021/10/14 09:13:33;;;;;;;7.40;4.72;;;;;;;9.98;66.94;97665.22;4995540;28;20069;-78
2021/10/14 09:16:22;;;;;;;6.65;4.35;;;;;;;10.01;66.22;97664.91;4995147;28;20058;-77
2021/10/14 09:18:52;;;;;;;5.55;4.57;;;;;;;10.05;67.34;97658.41;4995190;28;20500;-77
2021/10/14 09:21:27;;;;;;;6.38;4.68;;;;;;;10.10;66.30;97650.94;4995349;28;20062;-77
2021/10/14 09:23:58;;;;;;;9.48;5.18;;;;;;;10.15;66.74;97656.53;4995894;28;20050;-77
2021/10/14 09:26:27;;;;;;;7.43;4.63;;;;;;;10.20;65.47;97656.88;4995902;28;20050;-77
2021/10/14 09:29:12;;;;;;;7.57;5.00;;;;;;;10.26;65.39;97665.91;4995343;28;20058;-78
2021/10/14 09:31:48;;;;;;;6.50;4.57;;;;;;;10.30;64.59;97662.03;4995752;28;20054;-77
2021/10/14 09:34:39;;;;;;;5.15;4.47;;;;;;;10.37;66.19;97662.25;4995451;28;20050;-77
2021/10/14 09:37:30;;;;;;;9.40;5.53;;;;;;;10.40;64.52;97662.75;4992643;28;20424;-77
2021/10/14 09:40:00;;;;;;;6.30;4.15;;;;;;;10.45;64.57;97657.06;4995403;28;20073;-77
2021/10/14 09:42:44;;;;;;;7.93;4.70;;;;;;;10.48;65.54;97654.16;4995564;28;20058;-77
2021/10/14 09:45:20;;;;;;;10.07;4.50;;;;;;;10.54;65.82;97656.16;4995603;28;20050;-77
2021/10/14 09:47:49;;;;;;;9.57;5.18;;;;;;;10.57;64.47;97653.22;4996114;28;20054;-78
2021/10/14 09:50:20;;;;;;;6.13;4.97;;;;;;;10.62;64.19;97650.94;4995380;28;20047;-77
2021/10/14 09:52:47;;;;;;;6.85;5.28;;;;;;;10.69;65.30;97649.38;4995651;28;20062;-77
2021/10/14 09:55:18;;;;;;;6.18;4.65;;;;;;;10.83;64.99;97641.91;4995576;28;20397;-77
2021/10/14 09:57:46;;;;;;;7.25;5.60;;;;;;;11.08;64.01;97641.00;4995072;28;20050;-78
2021/10/14 10:00:13;;;;;;;5.88;4.30;;;;;;;11.29;62.76;97640.56;4994661;28;20484;-78
2021/10/14 10:02:44;;;;;;;6.00;4.15;;;;;;;11.41;61.52;97629.81;4994742;28;20056;-77
2021/10/14 10:05:12;;;;;;;5.90;4.70;;;;;;;11.48;60.92;97626.41;4994878;28;20100;-77
2021/10/14 10:07:44;;;;;;;7.07;4.40;;;;;;;11.58;62.44;97625.41;4994916;28;20311;-78
2021/10/14 10:10:15;;;;;;;6.55;4.32;;;;;;;11.74;60.72;97628.84;4993880;28;20050;-78
2021/10/14 10:12:45;;;;;;;6.47;4.93;;;;;;;12.13;60.67;97630.81;4994214;28;20061;-77
2021/10/14 10:15:13;;;;;;;5.93;4.63;;;;;;;12.50;59.77;97631.22;4995775;28;20054;-78
2021/10/14 10:17:43;;;;;;;7.22;4.65;;;;;;;12.80;59.37;97637.50;4995409;28;20057;-78
2021/10/14 10:20:31;;;;;;;5.38;4.78;;;;;;;12.99;58.70;97638.88;4994656;28;20046;-78
2021/10/14 10:23:00;;;;;;;6.65;4.43;;;;;;;13.07;58.66;97633.59;4993696;28;20185;-77
2021/10/14 10:25:37;;;;;;;9.85;4.22;;;;;;;13.08;57.50;97635.22;4993685;28;20057;-78
2021/10/14 10:28:07;;;;;;;6.10;4.65;;;;;;;13.05;57.73;97637.38;4993602;28;20051;-77
2021/10/14 10:30:54;;;;;;;6.20;4.85;;;;;;;13.00;57.49;97648.34;4993683;28;20046;-78
2021/10/14 10:33:50;;;;;;;4.60;3.88;;;;;;;12.96;59.21;97641.81;4994307;28;20062;-78
2021/10/14 10:36:46;;;;;;;5.90;4.30;;;;;;;12.92;57.29;97632.69;4994081;28;20089;-78
2021/10/14 10:39:44;;;;;;;6.07;4.68;;;;;;;12.86;56.40;97633.38;4993406;28;20061;-77
2021/10/14 10:42:17;;;;;;;7.25;4.60;;;;;;;12.83;56.15;97633.72;4993640;28;20488;-78
2021/10/14 10:44:45;;;;;;;5.28;4.50;;;;;;;12.77;56.19;97628.19;4993552;28;20057;-77
2021/10/14 10:47:40;;;;;;;5.72;4.20;;;;;;;12.72;55.84;97634.91;4993700;28;20057;-77
2021/10/14 10:50:10;;;;;;;6.53;4.93;;;;;;;12.67;56.79;97630.16;4979695;28;20423;-78
2021/10/14 10:52:39;;;;;;;6.43;4.30;;;;;;;12.62;56.54;97624.63;4993325;28;20050;-78
2021/10/14 10:55:43;;;;;;;6.68;3.90;;;;;;;12.55;56.74;97621.03;4993722;28;20133;-77
2021/10/14 10:58:13;;;;;;;6.25;4.15;;;;;;;12.52;58.49;97621.38;4993500;28;20090;-78
2021/10/14 11:00:45;;;;;;;7.57;4.60;;;;;;;12.51;57.86;97614.53;4998841;28;20050;-78
2021/10/14 11:03:20;;;;;;;5.60;4.00;;;;;;;12.51;57.62;97607.50;5001554;28;20419;-78
2021/10/14 11:05:51;;;;;;;6.78;3.70;;;;;;;12.51;58.14;97619.78;4999556;28;20058;-78
2021/10/14 11:08:22;;;;;;;6.57;4.10;;;;;;;12.51;57.36;97612.72;4993260;28;20058;-78
2021/10/14 11:10:52;;;;;;;5.30;4.00;;;;;;;12.50;57.29;97602.41;4993108;28;20060;-77
2021/10/14 11:13:22;;;;;;;6.60;4.07;;;;;;;12.48;56.93;97607.81;4993205;28;20047;-78
2021/10/14 11:15:59;;;;;;;5.13;4.18;;;;;;;12.48;58.16;97597.34;4993188;28;20084;-78
2021/10/14 11:18:29;;;;;;;7.03;4.70;;;;;;;12.50;57.05;97602.41;4993360;28;20054;-77
2021/10/14 11:20:58;;;;;;;7.72;4.45;;;;;;;12.48;57.58;97601.78;4993190;28;20042;-77
2021/10/14 11:23:29;;;;;;;5.97;4.57;;;;;;;12.47;58.54;97602.78;4993337;28;20545;-77
2021/10/14 11:26:12;;;;;;;5.78;4.45;;;;;;;12.46;57.48;97596.72;4993452;28;20113;-77
2021/10/14 11:28:59;;;;;;;6.20;4.95;;;;;;;12.45;55.54;97602.13;4992695;28;20057;-77
2021/10/14 11:31:35;;;;;;;5.50;4.10;;;;;;;12.43;57.36;97594.44;4992861;28;20051;-77
2021/10/14 11:34:08;;;;;;;7.18;4.65;;;;;;;12.43;55.85;97597.06;4993144;28;20529;-77
2021/10/14 11:36:36;;;;;;;7.45;4.60;;;;;;;12.41;55.94;97595.59;4993292;28;20050;-78
2021/10/14 11:39:06;;;;;;;6.97;4.95;;;;;;;12.38;56.83;97586.28;4992804;28;20428;-77
2021/10/14 11:41:34;;;;;;;10.40;5.75;;;;;;;12.39;57.07;97592.31;4996947;28;20054;-78
2021/10/14 11:44:06;;;;;;;6.57;4.53;;;;;;;12.39;57.60;97587.91;4997234;28;20051;-78
2021/10/14 11:46:35;;;;;;;6.05;4.28;;;;;;;12.41;57.56;97582.50;4996823;28;20077;-77